sensor_id;sensor_type;location;lat;lon;timestamp;P1;durP1;ratioP1;P2;durP2;ratioP2
10979;SDS011;5543;51.734;8.744;2022-10-04T00:01:22;4.67;;;2.60;;
10979;SDS011;5543;51.734;8.744;2022-10-04T00:04:00;4.75;;;1.83;;
10979;SDS011;5543;51.734;8.744;2022-10-04T00:06:33;3.45;;;2.35;;
10979;SDS011;5543;51.734;8.744;2022-10-04T00:09:04;7.10;;;2.55;;
10979;SDS011;5543;51.734;8.744;2022-10-04T00:11:38;3.30;;;2.30;;
10979;SDS011;5543;51.734;8.744;2022-10-04T00:14:13;1.92;;;1.83;;
10979;SDS011;5543;51.734;8.744;2022-10-04T00:16:46;3.17;;;2.50;;
10979;SDS011;5543;51.734;8.744;2022-10-04T00:19:35;6.57;;;2.30;;
10979;SDS011;5543;51.734;8.744;2022-10-04T00:22:13;2.25;;;1.85;;
10979;SDS011;5543;51.734;8.744;2022-10-04T00:25:01;2.53;;;2.17;;
10979;SDS011;5543;51.734;8.744;2022-10-04T00:31:13;4.00;;;2.00;;
10979;SDS011;5543;51.734;8.744;2022-10-04T00:33:44;3.90;;;2.70;;
10979;SDS011;5543;51.734;8.744;2022-10-04T00:42:22;5.90;;;2.30;;
10979;SDS011;5543;51.734;8.744;2022-10-04T00:45:06;2.28;;;2.00;;
10979;SDS011;5543;51.734;8.744;2022-10-04T00:47:56;3.20;;;2.25;;
10979;SDS011;5543;51.734;8.744;2022-10-04T00:50:32;4.20;;;2.22;;
10979;SDS011;5543;51.734;8.744;2022-10-04T00:53:11;2.63;;;2.10;;
10979;SDS011;5543;51.734;8.744;2022-10-04T00:55:46;8.65;;;2.55;;
10979;SDS011;5543;51.734;8.744;2022-10-04T00:58:19;2.72;;;2.17;;
10979;SDS011;5543;51.734;8.744;2022-10-04T01:00:51;3.25;;;2.53;;
10979;SDS011;5543;51.734;8.744;2022-10-04T01:03:22;4.63;;;2.57;;
10979;SDS011;5543;51.734;8.744;2022-10-04T01:05:57;2.92;;;1.95;;
10979;SDS011;5543;51.734;8.744;2022-10-04T01:08:30;3.03;;;2.03;;
10979;SDS011;5543;51.734;8.744;2022-10-04T01:11:02;12.50;;;2.65;;
10979;SDS011;5543;51.734;8.744;2022-10-04T01:13:35;4.05;;;3.00;;
10979;SDS011;5543;51.734;8.744;2022-10-04T01:16:08;4.03;;;2.60;;
10979;SDS011;5543;51.734;8.744;2022-10-04T01:18:40;6.75;;;2.15;;
10979;SDS011;5543;51.734;8.744;2022-10-04T01:21:19;7.90;;;2.20;;
10979;SDS011;5543;51.734;8.744;2022-10-04T01:26:45;2.38;;;2.00;;
10979;SDS011;5543;51.734;8.744;2022-10-04T01:29:14;2.40;;;2.20;;
10979;SDS011;5543;51.734;8.744;2022-10-04T01:31:45;4.40;;;2.30;;
10979;SDS011;5543;51.734;8.744;2022-10-04T01:34:15;3.80;;;1.80;;
10979;SDS011;5543;51.734;8.744;2022-10-04T01:36:45;3.72;;;2.35;;
10979;SDS011;5543;51.734;8.744;2022-10-04T01:39:14;4.05;;;2.42;;
10979;SDS011;5543;51.734;8.744;2022-10-04T01:41:46;2.53;;;2.10;;
10979;SDS011;5543;51.734;8.744;2022-10-04T01:44:26;5.38;;;2.10;;
10979;SDS011;5543;51.734;8.744;2022-10-04T01:47:00;2.70;;;1.77;;
10979;SDS011;5543;51.734;8.744;2022-10-04T01:49:32;2.58;;;2.00;;
10979;SDS011;5543;51.734;8.744;2022-10-04T01:52:04;5.63;;;2.67;;
10979;SDS011;5543;51.734;8.744;2022-10-04T01:54:36;4.45;;;2.47;;
10979;SDS011;5543;51.734;8.744;2022-10-04T01:57:11;4.05;;;3.17;;
10979;SDS011;5543;51.734;8.744;2022-10-04T01:59:45;3.63;;;2.40;;
10979;SDS011;5543;51.734;8.744;2022-10-04T02:02:19;3.80;;;2.25;;
10979;SDS011;5543;51.734;8.744;2022-10-04T02:04:51;5.20;;;2.47;;
10979;SDS011;5543;51.734;8.744;2022-10-04T02:07:22;2.88;;;2.03;;
10979;SDS011;5543;51.734;8.744;2022-10-04T02:09:55;2.88;;;2.50;;
10979;SDS011;5543;51.734;8.744;2022-10-04T02:12:27;5.35;;;2.42;;
10979;SDS011;5543;51.734;8.744;2022-10-04T02:14:59;3.88;;;2.40;;
10979;SDS011;5543;51.734;8.744;2022-10-04T02:17:32;2.50;;;2.15;;
10979;SDS011;5543;51.734;8.744;2022-10-04T02:20:07;2.95;;;2.15;;
10979;SDS011;5543;51.734;8.744;2022-10-04T02:22:39;1.83;;;1.70;;
10979;SDS011;5543;51.734;8.744;2022-10-04T02:25:09;3.80;;;2.42;;
10979;SDS011;5543;51.734;8.744;2022-10-04T02:27:40;4.45;;;1.98;;
10979;SDS011;5543;51.734;8.744;2022-10-04T02:30:09;2.67;;;2.13;;
10979;SDS011;5543;51.734;8.744;2022-10-04T02:32:39;4.00;;;1.80;;
10979;SDS011;5543;51.734;8.744;2022-10-04T02:35:23;7.25;;;2.35;;
10979;SDS011;5543;51.734;8.744;2022-10-04T02:37:55;1.85;;;1.70;;
10979;SDS011;5543;51.734;8.744;2022-10-04T02:40:33;4.80;;;2.22;;
10979;SDS011;5543;51.734;8.744;2022-10-04T02:43:09;4.30;;;2.65;;
10979;SDS011;5543;51.734;8.744;2022-10-04T02:45:43;3.25;;;2.50;;
10979;SDS011;5543;51.734;8.744;2022-10-04T02:48:19;3.80;;;2.55;;
10979;SDS011;5543;51.734;8.744;2022-10-04T02:51:00;4.53;;;2.00;;
10979;SDS011;5543;51.734;8.744;2022-10-04T02:53:43;2.63;;;2.13;;
10979;SDS011;5543;51.734;8.744;2022-10-04T02:56:17;4.97;;;2.97;;
10979;SDS011;5543;51.734;8.744;2022-10-04T02:58:48;2.47;;;2.25;;
10979;SDS011;5543;51.734;8.744;2022-10-04T03:01:23;11.40;;;2.75;;
10979;SDS011;5543;51.734;8.744;2022-10-04T03:03:53;4.63;;;2.67;;
10979;SDS011;5543;51.734;8.744;2022-10-04T03:06:23;3.42;;;2.25;;
10979;SDS011;5543;51.734;8.744;2022-10-04T03:08:58;2.88;;;2.35;;
10979;SDS011;5543;51.734;8.744;2022-10-04T03:11:30;6.47;;;2.85;;
10979;SDS011;5543;51.734;8.744;2022-10-04T03:14:03;2.83;;;2.17;;
10979;SDS011;5543;51.734;8.744;2022-10-04T03:16:36;4.03;;;2.30;;
10979;SDS011;5543;51.734;8.744;2022-10-04T03:19:06;3.67;;;2.53;;
10979;SDS011;5543;51.734;8.744;2022-10-04T03:21:35;2.50;;;2.30;;
10979;SDS011;5543;51.734;8.744;2022-10-04T03:24:06;5.30;;;2.38;;
10979;SDS011;5543;51.734;8.744;2022-10-04T03:26:37;3.03;;;2.10;;
10979;SDS011;5543;51.734;8.744;2022-10-04T03:29:10;2.80;;;2.50;;
10979;SDS011;5543;51.734;8.744;2022-10-04T03:31:41;2.95;;;2.10;;
10979;SDS011;5543;51.734;8.744;2022-10-04T03:34:12;2.63;;;2.13;;
10979;SDS011;5543;51.734;8.744;2022-10-04T03:36:42;4.50;;;2.38;;
10979;SDS011;5543;51.734;8.744;2022-10-04T03:39:14;3.95;;;2.67;;
10979;SDS011;5543;51.734;8.744;2022-10-04T03:41:47;5.85;;;2.70;;
10979;SDS011;5543;51.734;8.744;2022-10-04T03:44:16;4.15;;;2.53;;
10979;SDS011;5543;51.734;8.744;2022-10-04T03:46:46;3.85;;;2.85;;
10979;SDS011;5543;51.734;8.744;2022-10-04T03:49:16;4.55;;;2.58;;
10979;SDS011;5543;51.734;8.744;2022-10-04T03:51:50;8.10;;;2.75;;
10979;SDS011;5543;51.734;8.744;2022-10-04T03:54:20;4.13;;;2.45;;
10979;SDS011;5543;51.734;8.744;2022-10-04T03:56:53;4.18;;;2.45;;
10979;SDS011;5543;51.734;8.744;2022-10-04T03:59:24;3.03;;;2.58;;
10979;SDS011;5543;51.734;8.744;2022-10-04T04:02:00;2.83;;;2.30;;
10979;SDS011;5543;51.734;8.744;2022-10-04T04:04:35;2.60;;;2.40;;
10979;SDS011;5543;51.734;8.744;2022-10-04T04:07:10;4.47;;;2.42;;
10979;SDS011;5543;51.734;8.744;2022-10-04T04:09:41;2.83;;;2.30;;
10979;SDS011;5543;51.734;8.744;2022-10-04T04:12:13;1.95;;;1.75;;
10979;SDS011;5543;51.734;8.744;2022-10-04T04:14:47;3.53;;;2.65;;
10979;SDS011;5543;51.734;8.744;2022-10-04T04:17:28;5.32;;;2.17;;
10979;SDS011;5543;51.734;8.744;2022-10-04T04:20:02;2.67;;;2.08;;
10979;SDS011;5543;51.734;8.744;2022-10-04T04:22:33;5.72;;;2.38;;
10979;SDS011;5543;51.734;8.744;2022-10-04T04:25:06;2.47;;;2.03;;
10979;SDS011;5543;51.734;8.744;2022-10-04T04:27:39;2.47;;;2.10;;
10979;SDS011;5543;51.734;8.744;2022-10-04T04:30:13;3.92;;;2.10;;
10979;SDS011;5543;51.734;8.744;2022-10-04T04:32:44;2.60;;;2.40;;
10979;SDS011;5543;51.734;8.744;2022-10-04T04:35:20;3.80;;;2.42;;
10979;SDS011;5543;51.734;8.744;2022-10-04T04:40:43;2.72;;;2.10;;
10979;SDS011;5543;51.734;8.744;2022-10-04T04:43:13;2.42;;;2.20;;
10979;SDS011;5543;51.734;8.744;2022-10-04T04:45:46;2.53;;;1.92;;
10979;SDS011;5543;51.734;8.744;2022-10-04T04:48:35;2.63;;;2.00;;
10979;SDS011;5543;51.734;8.744;2022-10-04T04:51:04;2.58;;;1.95;;
10979;SDS011;5543;51.734;8.744;2022-10-04T04:53:32;2.67;;;2.17;;
10979;SDS011;5543;51.734;8.744;2022-10-04T04:56:01;3.53;;;2.45;;
10979;SDS011;5543;51.734;8.744;2022-10-04T04:58:37;3.05;;;2.30;;
10979;SDS011;5543;51.734;8.744;2022-10-04T05:01:13;2.88;;;2.58;;
10979;SDS011;5543;51.734;8.744;2022-10-04T05:03:58;2.42;;;1.98;;
10979;SDS011;5543;51.734;8.744;2022-10-04T05:06:27;2.10;;;1.90;;
10979;SDS011;5543;51.734;8.744;2022-10-04T05:08:56;3.92;;;2.50;;
10979;SDS011;5543;51.734;8.744;2022-10-04T05:11:25;6.13;;;2.38;;
10979;SDS011;5543;51.734;8.744;2022-10-04T05:13:56;4.50;;;2.55;;
10979;SDS011;5543;51.734;8.744;2022-10-04T05:16:31;3.30;;;2.10;;
10979;SDS011;5543;51.734;8.744;2022-10-04T05:19:05;4.15;;;3.15;;
10979;SDS011;5543;51.734;8.744;2022-10-04T05:21:40;3.67;;;2.47;;
10979;SDS011;5543;51.734;8.744;2022-10-04T05:24:11;2.83;;;2.13;;
10979;SDS011;5543;51.734;8.744;2022-10-04T05:26:44;2.92;;;2.47;;
10979;SDS011;5543;51.734;8.744;2022-10-04T05:29:17;2.92;;;2.20;;
10979;SDS011;5543;51.734;8.744;2022-10-04T05:31:49;4.55;;;2.28;;
10979;SDS011;5543;51.734;8.744;2022-10-04T05:34:25;3.78;;;2.47;;
10979;SDS011;5543;51.734;8.744;2022-10-04T05:37:04;2.83;;;2.47;;
10979;SDS011;5543;51.734;8.744;2022-10-04T05:39:46;3.28;;;2.22;;
10979;SDS011;5543;51.734;8.744;2022-10-04T05:42:24;2.67;;;2.10;;
10979;SDS011;5543;51.734;8.744;2022-10-04T05:45:10;5.63;;;2.50;;
10979;SDS011;5543;51.734;8.744;2022-10-04T05:47:42;3.67;;;2.03;;
10979;SDS011;5543;51.734;8.744;2022-10-04T05:50:14;3.38;;;2.60;;
10979;SDS011;5543;51.734;8.744;2022-10-04T05:52:43;3.53;;;2.40;;
10979;SDS011;5543;51.734;8.744;2022-10-04T05:55:16;4.13;;;2.53;;
10979;SDS011;5543;51.734;8.744;2022-10-04T05:58:01;2.78;;;2.30;;
10979;SDS011;5543;51.734;8.744;2022-10-04T06:00:50;2.97;;;2.40;;
10979;SDS011;5543;51.734;8.744;2022-10-04T06:03:44;5.03;;;2.75;;
10979;SDS011;5543;51.734;8.744;2022-10-04T06:06:33;5.30;;;2.63;;
10979;SDS011;5543;51.734;8.744;2022-10-04T06:09:08;6.05;;;3.33;;
10979;SDS011;5543;51.734;8.744;2022-10-04T06:11:48;8.55;;;3.88;;
10979;SDS011;5543;51.734;8.744;2022-10-04T06:17:28;3.20;;;2.63;;
10979;SDS011;5543;51.734;8.744;2022-10-04T06:20:16;4.25;;;2.55;;
10979;SDS011;5543;51.734;8.744;2022-10-04T06:23:04;3.90;;;2.92;;
10979;SDS011;5543;51.734;8.744;2022-10-04T06:25:40;4.15;;;2.95;;
10979;SDS011;5543;51.734;8.744;2022-10-04T06:28:14;4.60;;;2.83;;
10979;SDS011;5543;51.734;8.744;2022-10-04T06:30:59;4.38;;;3.08;;
10979;SDS011;5543;51.734;8.744;2022-10-04T06:33:50;2.60;;;2.40;;
10979;SDS011;5543;51.734;8.744;2022-10-04T06:39:37;4.15;;;2.65;;
10979;SDS011;5543;51.734;8.744;2022-10-04T06:42:33;3.33;;;2.55;;
10979;SDS011;5543;51.734;8.744;2022-10-04T06:45:18;4.43;;;2.92;;
10979;SDS011;5543;51.734;8.744;2022-10-04T06:48:04;4.30;;;2.67;;
10979;SDS011;5543;51.734;8.744;2022-10-04T06:50:44;6.72;;;3.25;;
10979;SDS011;5543;51.734;8.744;2022-10-04T06:53:20;3.30;;;2.80;;
10979;SDS011;5543;51.734;8.744;2022-10-04T06:56:04;3.58;;;2.70;;
10979;SDS011;5543;51.734;8.744;2022-10-04T06:58:45;4.22;;;3.17;;
10979;SDS011;5543;51.734;8.744;2022-10-04T07:01:49;4.65;;;2.85;;
10979;SDS011;5543;51.734;8.744;2022-10-04T07:04:21;3.70;;;3.05;;
10979;SDS011;5543;51.734;8.744;2022-10-04T07:07:19;7.13;;;2.88;;
10979;SDS011;5543;51.734;8.744;2022-10-04T07:09:55;3.28;;;2.83;;
10979;SDS011;5543;51.734;8.744;2022-10-04T07:12:30;5.07;;;3.08;;
10979;SDS011;5543;51.734;8.744;2022-10-04T07:15:01;5.10;;;2.95;;
10979;SDS011;5543;51.734;8.744;2022-10-04T07:17:36;5.13;;;3.28;;
10979;SDS011;5543;51.734;8.744;2022-10-04T07:20:13;8.80;;;3.58;;
10979;SDS011;5543;51.734;8.744;2022-10-04T07:22:49;3.03;;;2.55;;
10979;SDS011;5543;51.734;8.744;2022-10-04T07:25:24;3.80;;;3.15;;
10979;SDS011;5543;51.734;8.744;2022-10-04T07:27:57;3.63;;;3.33;;
10979;SDS011;5543;51.734;8.744;2022-10-04T07:30:49;4.97;;;3.20;;
10979;SDS011;5543;51.734;8.744;2022-10-04T07:33:25;2.85;;;2.65;;
10979;SDS011;5543;51.734;8.744;2022-10-04T07:35:58;5.20;;;2.50;;
10979;SDS011;5543;51.734;8.744;2022-10-04T07:38:33;7.22;;;3.00;;
10979;SDS011;5543;51.734;8.744;2022-10-04T07:41:08;3.20;;;2.90;;
10979;SDS011;5543;51.734;8.744;2022-10-04T07:43:45;4.95;;;3.20;;
10979;SDS011;5543;51.734;8.744;2022-10-04T07:46:19;7.68;;;3.42;;
10979;SDS011;5543;51.734;8.744;2022-10-04T07:48:54;3.92;;;2.78;;
10979;SDS011;5543;51.734;8.744;2022-10-04T07:51:26;3.75;;;2.80;;
10979;SDS011;5543;51.734;8.744;2022-10-04T07:54:00;3.05;;;2.70;;
10979;SDS011;5543;51.734;8.744;2022-10-04T07:56:33;5.40;;;3.38;;
10979;SDS011;5543;51.734;8.744;2022-10-04T07:59:13;2.33;;;2.13;;
10979;SDS011;5543;51.734;8.744;2022-10-04T08:01:52;6.20;;;2.80;;
10979;SDS011;5543;51.734;8.744;2022-10-04T08:04:31;2.78;;;2.45;;
10979;SDS011;5543;51.734;8.744;2022-10-04T08:07:09;2.60;;;2.40;;
10979;SDS011;5543;51.734;8.744;2022-10-04T08:09:48;3.17;;;2.20;;
10979;SDS011;5543;51.734;8.744;2022-10-04T08:12:33;2.30;;;2.10;;
10979;SDS011;5543;51.734;8.744;2022-10-04T08:15:17;3.05;;;2.15;;
10979;SDS011;5543;51.734;8.744;2022-10-04T08:18:04;2.45;;;2.25;;
10979;SDS011;5543;51.734;8.744;2022-10-04T08:20:43;4.28;;;2.33;;
10979;SDS011;5543;51.734;8.744;2022-10-04T08:26:21;4.43;;;2.03;;
10979;SDS011;5543;51.734;8.744;2022-10-04T08:29:18;2.95;;;2.03;;
10979;SDS011;5543;51.734;8.744;2022-10-04T08:32:14;2.78;;;2.45;;
10979;SDS011;5543;51.734;8.744;2022-10-04T08:35:16;4.53;;;2.15;;
10979;SDS011;5543;51.734;8.744;2022-10-04T08:38:00;2.22;;;1.80;;
10979;SDS011;5543;51.734;8.744;2022-10-04T08:43:49;2.30;;;1.95;;
10979;SDS011;5543;51.734;8.744;2022-10-04T08:46:48;12.88;;;1.80;;
10979;SDS011;5543;51.734;8.744;2022-10-04T08:49:44;3.22;;;1.58;;
10979;SDS011;5543;51.734;8.744;2022-10-04T08:58:46;1.63;;;1.52;;
10979;SDS011;5543;51.734;8.744;2022-10-04T09:04:43;1.65;;;1.38;;
10979;SDS011;5543;51.734;8.744;2022-10-04T09:10:28;2.15;;;1.40;;
10979;SDS011;5543;51.734;8.744;2022-10-04T09:13:09;1.65;;;1.55;;
10979;SDS011;5543;51.734;8.744;2022-10-04T09:15:58;2.47;;;1.70;;
10979;SDS011;5543;51.734;8.744;2022-10-04T09:18:37;3.85;;;1.38;;
10979;SDS011;5543;51.734;8.744;2022-10-04T09:21:33;1.50;;;1.40;;
10979;SDS011;5543;51.734;8.744;2022-10-04T09:24:36;2.05;;;1.30;;
10979;SDS011;5543;51.734;8.744;2022-10-04T09:27:24;2.53;;;1.33;;
10979;SDS011;5543;51.734;8.744;2022-10-04T09:30:22;2.33;;;1.58;;
10979;SDS011;5543;51.734;8.744;2022-10-04T09:33:11;3.63;;;1.27;;
10979;SDS011;5543;51.734;8.744;2022-10-04T09:36:05;1.90;;;1.50;;
10979;SDS011;5543;51.734;8.744;2022-10-04T09:38:57;1.85;;;1.42;;
10979;SDS011;5543;51.734;8.744;2022-10-04T09:47:50;1.83;;;1.55;;
10979;SDS011;5543;51.734;8.744;2022-10-04T09:50:39;1.60;;;1.50;;
10979;SDS011;5543;51.734;8.744;2022-10-04T09:53:38;2.10;;;1.63;;
10979;SDS011;5543;51.734;8.744;2022-10-04T09:56:21;4.32;;;1.63;;
10979;SDS011;5543;51.734;8.744;2022-10-04T10:02:16;1.40;;;1.30;;
10979;SDS011;5543;51.734;8.744;2022-10-04T10:05:22;1.65;;;1.55;;
10979;SDS011;5543;51.734;8.744;2022-10-04T10:07:59;1.55;;;1.40;;
10979;SDS011;5543;51.734;8.744;2022-10-04T10:10:41;3.38;;;1.77;;
10979;SDS011;5543;51.734;8.744;2022-10-04T10:16:40;1.65;;;1.55;;
10979;SDS011;5543;51.734;8.744;2022-10-04T10:19:24;2.33;;;1.65;;
10979;SDS011;5543;51.734;8.744;2022-10-04T10:22:20;1.60;;;1.50;;
10979;SDS011;5543;51.734;8.744;2022-10-04T10:25:05;2.80;;;1.73;;
10979;SDS011;5543;51.734;8.744;2022-10-04T10:27:52;1.40;;;1.17;;
10979;SDS011;5543;51.734;8.744;2022-10-04T10:30:36;2.65;;;1.73;;
10979;SDS011;5543;51.734;8.744;2022-10-04T10:33:33;1.98;;;1.30;;
10979;SDS011;5543;51.734;8.744;2022-10-04T10:36:23;1.50;;;1.40;;
10979;SDS011;5543;51.734;8.744;2022-10-04T10:39:02;2.45;;;1.52;;
10979;SDS011;5543;51.734;8.744;2022-10-04T10:41:55;1.30;;;1.20;;
10979;SDS011;5543;51.734;8.744;2022-10-04T10:44:41;2.00;;;1.40;;
10979;SDS011;5543;51.734;8.744;2022-10-04T10:47:31;1.25;;;1.10;;
10979;SDS011;5543;51.734;8.744;2022-10-04T10:50:17;1.25;;;1.15;;
10979;SDS011;5543;51.734;8.744;2022-10-04T10:56:29;3.00;;;1.40;;
10979;SDS011;5543;51.734;8.744;2022-10-04T10:59:28;1.70;;;1.30;;
10979;SDS011;5543;51.734;8.744;2022-10-04T11:08:59;1.55;;;1.30;;
10979;SDS011;5543;51.734;8.744;2022-10-04T11:12:17;1.40;;;1.30;;
10979;SDS011;5543;51.734;8.744;2022-10-04T11:15:37;1.00;;;1.00;;
10979;SDS011;5543;51.734;8.744;2022-10-04T11:21:35;1.60;;;1.27;;
10979;SDS011;5543;51.734;8.744;2022-10-04T11:24:33;1.80;;;1.55;;
10979;SDS011;5543;51.734;8.744;2022-10-04T11:27:25;1.95;;;1.77;;
10979;SDS011;5543;51.734;8.744;2022-10-04T11:30:07;2.92;;;1.25;;
10979;SDS011;5543;51.734;8.744;2022-10-04T11:36:04;1.55;;;1.30;;
10979;SDS011;5543;51.734;8.744;2022-10-04T11:38:54;1.83;;;1.50;;
10979;SDS011;5543;51.734;8.744;2022-10-04T11:41:33;4.10;;;1.83;;
10979;SDS011;5543;51.734;8.744;2022-10-04T11:47:17;1.50;;;1.40;;
10979;SDS011;5543;51.734;8.744;2022-10-04T11:49:58;4.07;;;2.80;;
10979;SDS011;5543;51.734;8.744;2022-10-04T11:52:42;3.03;;;1.35;;
10979;SDS011;5543;51.734;8.744;2022-10-04T11:55:47;1.48;;;1.38;;
10979;SDS011;5543;51.734;8.744;2022-10-04T11:58:26;2.15;;;1.92;;
10979;SDS011;5543;51.734;8.744;2022-10-04T12:01:10;1.40;;;1.30;;
10979;SDS011;5543;51.734;8.744;2022-10-04T12:04:06;5.53;;;2.33;;
10979;SDS011;5543;51.734;8.744;2022-10-04T12:06:53;2.47;;;1.33;;
10979;SDS011;5543;51.734;8.744;2022-10-04T12:09:36;2.95;;;1.92;;
10979;SDS011;5543;51.734;8.744;2022-10-04T12:12:17;2.47;;;1.50;;
10979;SDS011;5543;51.734;8.744;2022-10-04T12:15:07;1.80;;;1.40;;
10979;SDS011;5543;51.734;8.744;2022-10-04T12:24:24;3.80;;;1.48;;
10979;SDS011;5543;51.734;8.744;2022-10-04T12:30:22;1.88;;;1.35;;
10979;SDS011;5543;51.734;8.744;2022-10-04T12:32:56;1.30;;;1.20;;
10979;SDS011;5543;51.734;8.744;2022-10-04T12:35:40;1.88;;;1.40;;
10979;SDS011;5543;51.734;8.744;2022-10-04T12:41:24;2.15;;;1.60;;
10979;SDS011;5543;51.734;8.744;2022-10-04T12:43:59;1.45;;;1.20;;
10979;SDS011;5543;51.734;8.744;2022-10-04T12:46:39;2.78;;;1.45;;
10979;SDS011;5543;51.734;8.744;2022-10-04T12:49:19;1.63;;;1.52;;
10979;SDS011;5543;51.734;8.744;2022-10-04T12:51:56;1.65;;;1.40;;
10979;SDS011;5543;51.734;8.744;2022-10-04T12:54:33;2.58;;;1.55;;
10979;SDS011;5543;51.734;8.744;2022-10-04T12:57:12;2.28;;;1.63;;
10979;SDS011;5543;51.734;8.744;2022-10-04T12:59:51;2.85;;;1.88;;
10979;SDS011;5543;51.734;8.744;2022-10-04T13:05:15;4.28;;;1.55;;
10979;SDS011;5543;51.734;8.744;2022-10-04T13:07:57;2.20;;;1.92;;
10979;SDS011;5543;51.734;8.744;2022-10-04T13:10:41;3.28;;;1.85;;
10979;SDS011;5543;51.734;8.744;2022-10-04T13:13:22;1.60;;;1.50;;
10979;SDS011;5543;51.734;8.744;2022-10-04T13:16:15;2.13;;;1.33;;
10979;SDS011;5543;51.734;8.744;2022-10-04T13:19:13;1.92;;;1.38;;
10979;SDS011;5543;51.734;8.744;2022-10-04T13:25:12;1.40;;;1.17;;
10979;SDS011;5543;51.734;8.744;2022-10-04T13:27:47;4.43;;;2.22;;
10979;SDS011;5543;51.734;8.744;2022-10-04T13:30:24;1.45;;;1.35;;
10979;SDS011;5543;51.734;8.744;2022-10-04T13:33:01;1.88;;;1.70;;
10979;SDS011;5543;51.734;8.744;2022-10-04T13:35:45;1.33;;;1.27;;
10979;SDS011;5543;51.734;8.744;2022-10-04T13:38:34;2.05;;;1.70;;
10979;SDS011;5543;51.734;8.744;2022-10-04T13:41:19;1.70;;;1.25;;
10979;SDS011;5543;51.734;8.744;2022-10-04T13:44:07;2.17;;;1.45;;
10979;SDS011;5543;51.734;8.744;2022-10-04T13:46:52;1.65;;;1.13;;
10979;SDS011;5543;51.734;8.744;2022-10-04T13:49:35;1.15;;;1.05;;
10979;SDS011;5543;51.734;8.744;2022-10-04T13:52:20;1.40;;;1.30;;
10979;SDS011;5543;51.734;8.744;2022-10-04T13:55:16;1.23;;;1.13;;
10979;SDS011;5543;51.734;8.744;2022-10-04T13:58:13;1.60;;;1.30;;
10979;SDS011;5543;51.734;8.744;2022-10-04T14:01:00;2.28;;;1.08;;
10979;SDS011;5543;51.734;8.744;2022-10-04T14:03:48;1.65;;;1.30;;
10979;SDS011;5543;51.734;8.744;2022-10-04T14:06:35;1.40;;;1.30;;
10979;SDS011;5543;51.734;8.744;2022-10-04T14:09:34;0.82;;;0.80;;
10979;SDS011;5543;51.734;8.744;2022-10-04T14:15:59;1.40;;;1.30;;
10979;SDS011;5543;51.734;8.744;2022-10-04T14:18:56;1.25;;;1.15;;
10979;SDS011;5543;51.734;8.744;2022-10-04T14:25:24;1.52;;;1.35;;
10979;SDS011;5543;51.734;8.744;2022-10-04T14:28:31;1.30;;;1.20;;
10979;SDS011;5543;51.734;8.744;2022-10-04T14:31:34;1.67;;;1.10;;
10979;SDS011;5543;51.734;8.744;2022-10-04T14:34:30;1.75;;;1.30;;
10979;SDS011;5543;51.734;8.744;2022-10-04T14:37:45;1.08;;;0.98;;
10979;SDS011;5543;51.734;8.744;2022-10-04T14:40:47;1.20;;;1.10;;
10979;SDS011;5543;51.734;8.744;2022-10-04T14:46:53;2.28;;;1.10;;
10979;SDS011;5543;51.734;8.744;2022-10-04T14:49:37;1.35;;;1.25;;
10979;SDS011;5543;51.734;8.744;2022-10-04T14:52:29;1.55;;;1.40;;
10979;SDS011;5543;51.734;8.744;2022-10-04T14:55:09;2.13;;;1.10;;
10979;SDS011;5543;51.734;8.744;2022-10-04T14:57:57;2.47;;;1.20;;
10979;SDS011;5543;51.734;8.744;2022-10-04T15:00:47;1.38;;;1.10;;
10979;SDS011;5543;51.734;8.744;2022-10-04T15:03:32;3.75;;;1.83;;
10979;SDS011;5543;51.734;8.744;2022-10-04T15:06:09;1.35;;;1.13;;
10979;SDS011;5543;51.734;8.744;2022-10-04T15:11:38;1.17;;;1.10;;
10979;SDS011;5543;51.734;8.744;2022-10-04T15:14:37;2.20;;;1.20;;
10979;SDS011;5543;51.734;8.744;2022-10-04T15:17:09;1.40;;;1.30;;
10979;SDS011;5543;51.734;8.744;2022-10-04T15:19:56;1.35;;;1.25;;
10979;SDS011;5543;51.734;8.744;2022-10-04T15:22:36;1.42;;;1.30;;
10979;SDS011;5543;51.734;8.744;2022-10-04T15:28:03;4.30;;;1.67;;
10979;SDS011;5543;51.734;8.744;2022-10-04T15:30:50;1.23;;;1.13;;
10979;SDS011;5543;51.734;8.744;2022-10-04T15:33:28;0.95;;;0.93;;
10979;SDS011;5543;51.734;8.744;2022-10-04T15:36:15;1.63;;;1.02;;
10979;SDS011;5543;51.734;8.744;2022-10-04T15:39:32;1.83;;;1.33;;
10979;SDS011;5543;51.734;8.744;2022-10-04T15:42:13;2.55;;;1.83;;
10979;SDS011;5543;51.734;8.744;2022-10-04T15:44:57;1.77;;;1.58;;
10979;SDS011;5543;51.734;8.744;2022-10-04T15:47:35;2.25;;;1.40;;
10979;SDS011;5543;51.734;8.744;2022-10-04T15:50:28;2.78;;;1.40;;
10979;SDS011;5543;51.734;8.744;2022-10-04T15:53:05;1.90;;;1.17;;
10979;SDS011;5543;51.734;8.744;2022-10-04T15:58:54;1.30;;;1.20;;
10979;SDS011;5543;51.734;8.744;2022-10-04T16:01:49;1.30;;;1.20;;
10979;SDS011;5543;51.734;8.744;2022-10-04T16:04:38;0.98;;;0.98;;
10979;SDS011;5543;51.734;8.744;2022-10-04T16:07:21;1.75;;;1.23;;
10979;SDS011;5543;51.734;8.744;2022-10-04T16:10:07;1.30;;;1.20;;
10979;SDS011;5543;51.734;8.744;2022-10-04T16:15:46;1.17;;;1.08;;
10979;SDS011;5543;51.734;8.744;2022-10-04T16:19:04;1.30;;;1.20;;
10979;SDS011;5543;51.734;8.744;2022-10-04T16:21:46;3.08;;;1.20;;
10979;SDS011;5543;51.734;8.744;2022-10-04T16:24:38;2.83;;;1.30;;
10979;SDS011;5543;51.734;8.744;2022-10-04T16:27:34;1.40;;;1.30;;
10979;SDS011;5543;51.734;8.744;2022-10-04T16:30:24;1.58;;;1.48;;
10979;SDS011;5543;51.734;8.744;2022-10-04T16:33:01;1.52;;;1.20;;
10979;SDS011;5543;51.734;8.744;2022-10-04T16:35:39;2.63;;;1.20;;
10979;SDS011;5543;51.734;8.744;2022-10-04T16:38:21;1.25;;;1.15;;
10979;SDS011;5543;51.734;8.744;2022-10-04T16:41:08;1.30;;;1.20;;
10979;SDS011;5543;51.734;8.744;2022-10-04T16:43:46;1.38;;;1.20;;
10979;SDS011;5543;51.734;8.744;2022-10-04T16:46:22;2.08;;;1.27;;
10979;SDS011;5543;51.734;8.744;2022-10-04T16:48:57;4.28;;;1.75;;
10979;SDS011;5543;51.734;8.744;2022-10-04T16:54:33;3.05;;;1.88;;
10979;SDS011;5543;51.734;8.744;2022-10-04T16:57:17;1.85;;;1.75;;
10979;SDS011;5543;51.734;8.744;2022-10-04T16:59:49;2.33;;;1.75;;
10979;SDS011;5543;51.734;8.744;2022-10-04T17:05:20;2.00;;;1.80;;
10979;SDS011;5543;51.734;8.744;2022-10-04T17:08:23;2.58;;;1.90;;
10979;SDS011;5543;51.734;8.744;2022-10-04T17:11:10;2.15;;;1.90;;
10979;SDS011;5543;51.734;8.744;2022-10-04T17:13:53;2.17;;;1.60;;
10979;SDS011;5543;51.734;8.744;2022-10-04T17:16:27;4.93;;;1.85;;
10979;SDS011;5543;51.734;8.744;2022-10-04T17:19:12;2.58;;;1.90;;
10979;SDS011;5543;51.734;8.744;2022-10-04T17:21:46;3.03;;;2.10;;
10979;SDS011;5543;51.734;8.744;2022-10-04T17:24:25;3.17;;;2.78;;
10979;SDS011;5543;51.734;8.744;2022-10-04T17:27:20;2.13;;;1.48;;
10979;SDS011;5543;51.734;8.744;2022-10-04T17:29:56;2.72;;;2.00;;
10979;SDS011;5543;51.734;8.744;2022-10-04T17:32:34;2.53;;;1.70;;
10979;SDS011;5543;51.734;8.744;2022-10-04T17:35:12;3.13;;;2.20;;
10979;SDS011;5543;51.734;8.744;2022-10-04T17:37:52;2.35;;;2.00;;
10979;SDS011;5543;51.734;8.744;2022-10-04T17:40:28;2.85;;;2.13;;
10979;SDS011;5543;51.734;8.744;2022-10-04T17:43:11;2.13;;;1.92;;
10979;SDS011;5543;51.734;8.744;2022-10-04T17:45:51;4.22;;;2.97;;
10979;SDS011;5543;51.734;8.744;2022-10-04T17:48:30;4.65;;;2.33;;
10979;SDS011;5543;51.734;8.744;2022-10-04T17:51:39;2.85;;;2.25;;
10979;SDS011;5543;51.734;8.744;2022-10-04T17:54:27;3.33;;;2.55;;
10979;SDS011;5543;51.734;8.744;2022-10-04T17:57:19;2.55;;;2.25;;
10979;SDS011;5543;51.734;8.744;2022-10-04T17:59:56;4.07;;;2.40;;
10979;SDS011;5543;51.734;8.744;2022-10-04T18:02:39;6.93;;;2.90;;
10979;SDS011;5543;51.734;8.744;2022-10-04T18:05:14;2.22;;;2.03;;
10979;SDS011;5543;51.734;8.744;2022-10-04T18:07:48;3.22;;;2.45;;
10979;SDS011;5543;51.734;8.744;2022-10-04T18:10:27;2.38;;;2.10;;
10979;SDS011;5543;51.734;8.744;2022-10-04T18:12:59;3.80;;;2.60;;
10979;SDS011;5543;51.734;8.744;2022-10-04T18:15:33;3.40;;;2.13;;
10979;SDS011;5543;51.734;8.744;2022-10-04T18:18:07;2.92;;;2.15;;
10979;SDS011;5543;51.734;8.744;2022-10-04T18:20:56;1.80;;;1.70;;
10979;SDS011;5543;51.734;8.744;2022-10-04T18:23:31;2.97;;;2.08;;